createdAt,value
2022-11-21T00:01:14.951Z,96637.44
2022-11-21T00:03:42.456Z,96642.69
2022-11-21T00:06:10.003Z,96628.44
2022-11-21T00:08:37.655Z,96616.81
2022-11-21T00:11:05.222Z,96613.84
2022-11-21T00:13:32.745Z,96608.63
2022-11-21T00:16:07.700Z,96600.94
2022-11-21T00:18:35.953Z,96601.38
2022-11-21T00:21:07.963Z,96597.16
2022-11-21T00:23:35.489Z,96589.31
2022-11-21T00:26:10.985Z,96592.22
2022-11-21T00:28:38.991Z,96577.13
2022-11-21T00:31:06.928Z,96571.91
2022-11-21T00:33:39.170Z,96578.59
2022-11-21T00:36:10.107Z,96561.72
2022-11-21T00:38:37.935Z,96564.97
2022-11-21T00:41:06.443Z,96549.31
2022-11-21T00:43:34.076Z,96551.97
2022-11-21T00:46:03.203Z,96550.69
2022-11-21T00:48:32.364Z,96548.00
2022-11-21T00:51:00.852Z,96545.19
2022-11-21T00:53:29.617Z,96530.22
2022-11-21T00:55:57.923Z,96524.06
2022-11-21T00:58:26.835Z,96524.38
2022-11-21T01:01:06.311Z,96513.38
2022-11-21T01:03:35.059Z,96508.19
2022-11-21T01:06:14.372Z,96505.00
2022-11-21T01:08:44.584Z,96499.22
2022-11-21T01:11:14.836Z,96491.25
2022-11-21T01:13:42.834Z,96485.84
2022-11-21T01:16:14.684Z,96482.47
2022-11-21T01:18:42.241Z,96476.44
2022-11-21T01:21:21.344Z,96482.50
2022-11-21T01:23:49.735Z,96476.50
2022-11-21T01:26:19.598Z,96469.84
2022-11-21T01:28:47.695Z,96460.41
2022-11-21T01:31:21.165Z,96454.56
2022-11-21T01:33:49.315Z,96449.53
2022-11-21T01:36:20.334Z,96444.69
2022-11-21T01:38:50.100Z,96447.94
2022-11-21T01:41:20.696Z,96441.50
2022-11-21T01:43:48.903Z,96444.91
2022-11-21T01:46:18.412Z,96437.03
2022-11-21T01:48:53.073Z,96433.22
2022-11-21T01:51:54.255Z,96443.31
2022-11-21T01:54:33.103Z,96438.69
2022-11-21T01:57:16.357Z,96434.81
2022-11-21T02:00:05.403Z,96421.91
2022-11-21T02:02:36.900Z,96426.97
2022-11-21T02:05:07.641Z,96419.28
2022-11-21T02:07:39.425Z,96413.25
2022-11-21T02:10:07.820Z,96409.41
2022-11-21T02:12:45.115Z,96409.63
2022-11-21T02:15:12.864Z,96409.59
2022-11-21T02:17:40.543Z,96411.41
2022-11-21T02:20:11.193Z,96403.53
2022-11-21T02:23:02.915Z,96394.84
2022-11-21T02:25:38.653Z,96401.91
2022-11-21T02:28:09.255Z,96393.03
2022-11-21T02:30:40.123Z,96386.97
2022-11-21T02:33:08.534Z,96391.41
2022-11-21T02:35:36.321Z,96387.97
2022-11-21T02:38:24.015Z,96397.06
2022-11-21T02:41:26.832Z,96381.09
2022-11-21T02:44:02.657Z,96377.09
2022-11-21T02:46:32.995Z,96384.34
2022-11-21T02:49:04.607Z,96379.91
2022-11-21T02:51:32.204Z,96372.44
2022-11-21T02:53:59.724Z,96366.41
2022-11-21T02:56:27.224Z,96370.44
2022-11-21T02:58:55.202Z,96369.06
2022-11-21T03:01:22.844Z,96364.22
2022-11-21T03:03:50.258Z,96356.91
2022-11-21T03:06:17.814Z,96360.34
2022-11-21T03:08:45.274Z,96362.78
2022-11-21T03:11:12.770Z,96360.94
2022-11-21T03:13:40.225Z,96353.88
2022-11-21T03:16:07.701Z,96358.53
2022-11-21T03:18:35.102Z,96352.88
2022-11-21T03:21:02.591Z,96358.13
2022-11-21T03:23:30.096Z,96356.69
2022-11-21T03:25:59.848Z,96346.19
2022-11-21T03:28:27.486Z,96333.69
2022-11-21T03:30:54.912Z,96334.47
2022-11-21T03:33:22.354Z,96326.41
2022-11-21T03:35:49.943Z,96330.06
2022-11-21T03:38:17.764Z,96326.81
2022-11-21T03:40:45.195Z,96321.38
2022-11-21T03:43:12.704Z,96321.38
2022-11-21T03:45:40.189Z,96321.56
2022-11-21T03:48:07.721Z,96324.00
2022-11-21T03:50:35.162Z,96325.84
2022-11-21T03:53:02.864Z,96319.75
2022-11-21T03:55:30.302Z,96315.28
2022-11-21T03:57:57.676Z,96323.34
2022-11-21T04:00:25.253Z,96324.75
2022-11-21T04:02:52.624Z,96323.91
2022-11-21T04:05:20.335Z,96318.88
2022-11-21T04:07:47.801Z,96317.81
2022-11-21T04:10:15.601Z,96309.75
2022-11-21T04:12:43.030Z,96314.59
2022-11-21T04:15:13.731Z,96311.97
2022-11-21T04:17:41.784Z,96312.78
2022-11-21T04:20:09.926Z,96315.34
2022-11-21T04:22:37.383Z,96308.69
2022-11-21T04:25:05.236Z,96299.97
2022-11-21T04:27:32.794Z,96302.34
2022-11-21T04:30:00.229Z,96294.03
2022-11-21T04:32:27.864Z,96299.53
2022-11-21T04:34:55.304Z,96293.38
2022-11-21T04:37:22.808Z,96292.34
2022-11-21T04:39:50.335Z,96292.28
2022-11-21T04:42:17.819Z,96286.22
2022-11-21T04:44:45.481Z,96295.66
2022-11-21T04:47:12.930Z,96294.44
2022-11-21T04:49:40.511Z,96289.13
2022-11-21T04:52:08.010Z,96294.75
2022-11-21T04:54:35.520Z,96286.03
2022-11-21T04:57:03.098Z,96288.81
2022-11-21T04:59:30.600Z,96287.22
2022-11-21T05:01:58.412Z,96285.41
2022-11-21T05:04:26.003Z,96283.94
2022-11-21T05:06:53.713Z,96279.72
2022-11-21T05:09:21.246Z,96283.38
2022-11-21T05:12:07.365Z,96287.38
2022-11-21T05:14:34.947Z,96279.44
2022-11-21T05:17:02.415Z,96282.44
2022-11-21T05:19:29.934Z,96281.22
2022-11-21T05:21:57.490Z,96284.91
2022-11-21T05:24:25.197Z,96283.88
2022-11-21T05:26:54.012Z,96280.44
2022-11-21T05:29:27.786Z,96280.03
2022-11-21T05:31:56.035Z,96275.78
2022-11-21T05:34:23.492Z,96277.19
2022-11-21T05:36:57.335Z,96279.59
2022-11-21T05:39:25.664Z,96273.34
2022-11-21T05:41:57.163Z,96280.69
2022-11-21T05:44:27.547Z,96290.97
2022-11-21T05:46:55.396Z,96281.47
2022-11-21T05:49:22.894Z,96274.19
2022-11-21T05:51:50.437Z,96286.94
2022-11-21T05:54:18.023Z,96281.75
2022-11-21T05:56:45.525Z,96284.16
2022-11-21T05:59:13.185Z,96280.56
2022-11-21T06:01:59.496Z,96286.81
2022-11-21T06:04:27.276Z,96286.56
2022-11-21T06:06:55.006Z,96295.25
2022-11-21T06:09:22.587Z,96287.38
2022-11-21T06:11:50.075Z,96291.81
2022-11-21T06:14:17.975Z,96298.72
2022-11-21T06:16:45.403Z,96289.97
2022-11-21T06:19:12.837Z,96307.34
2022-11-21T06:21:41.096Z,96313.25
2022-11-21T06:24:08.814Z,96313.25
2022-11-21T06:26:36.266Z,96316.31
2022-11-21T06:29:03.725Z,96315.94
2022-11-21T06:31:32.047Z,96320.00
2022-11-21T06:33:59.774Z,96322.41
2022-11-21T06:36:27.536Z,96327.91
2022-11-21T06:38:56.314Z,96329.56
2022-11-21T06:41:26.549Z,96345.75
2022-11-21T06:43:54.088Z,96350.41
2022-11-21T06:46:21.573Z,96359.09
2022-11-21T06:48:49.249Z,96371.28
2022-11-21T06:51:19.429Z,96384.44
2022-11-21T06:53:48.769Z,96378.22
2022-11-21T06:56:16.274Z,96396.03
2022-11-21T06:58:43.836Z,96388.44
2022-11-21T07:01:11.448Z,96401.00
2022-11-21T07:03:39.385Z,96404.03
2022-11-21T07:06:07.466Z,96408.91
2022-11-21T07:08:36.300Z,96415.19
2022-11-21T07:13:54.031Z,96427.47
2022-11-21T07:16:21.572Z,96431.53
2022-11-21T07:18:49.194Z,96436.19
2022-11-21T07:21:16.595Z,96446.28
2022-11-21T07:23:44.171Z,96451.16
2022-11-21T07:26:11.761Z,96454.59
2022-11-21T07:28:39.225Z,96455.19
2022-11-21T07:31:12.975Z,96462.06
2022-11-21T07:33:43.555Z,96473.59
2022-11-21T07:36:12.971Z,96467.53
2022-11-21T07:38:41.867Z,96471.78
2022-11-21T07:41:10.404Z,96468.16
2022-11-21T07:43:37.923Z,96477.84
2022-11-21T07:46:05.465Z,96476.03
2022-11-21T07:48:32.980Z,96485.09
2022-11-21T07:51:04.167Z,96493.78
2022-11-21T07:53:31.765Z,96488.53
2022-11-21T07:56:00.192Z,96493.19
2022-11-21T07:58:27.814Z,96500.06
2022-11-21T08:00:55.204Z,96503.50
2022-11-21T08:03:23.631Z,96506.13
2022-11-21T08:05:51.095Z,96508.53
2022-11-21T08:08:18.988Z,96509.75
2022-11-21T08:10:47.154Z,96518.63
2022-11-21T08:13:15.174Z,96535.38
2022-11-21T08:15:42.726Z,96532.56
2022-11-21T08:18:15.236Z,96533.38
2022-11-21T08:20:43.074Z,96534.34
2022-11-21T08:23:11.036Z,96533.38
2022-11-21T08:25:40.232Z,96542.63
2022-11-21T08:28:09.691Z,96544.63
2022-11-21T08:30:37.454Z,96547.03
2022-11-21T08:33:05.347Z,96553.28
2022-11-21T08:35:32.988Z,96554.06
2022-11-21T08:38:02.041Z,96563.16
2022-11-21T08:40:30.875Z,96562.53
2022-11-21T08:43:09.425Z,96558.50
2022-11-21T08:45:38.786Z,96570.00
2022-11-21T08:48:11.813Z,96575.38
2022-11-21T08:50:39.651Z,96593.91
2022-11-21T08:53:07.145Z,96592.94
2022-11-21T08:55:34.614Z,96597.16
2022-11-21T08:58:02.147Z,96600.97
2022-11-21T09:00:29.564Z,96606.41
2022-11-21T09:02:56.996Z,96609.94
2022-11-21T09:05:24.850Z,96618.69
2022-11-21T09:07:58.887Z,96629.13
2022-11-21T09:10:27.406Z,96632.03
2022-11-21T09:12:57.392Z,96627.66
2022-11-21T09:15:43.648Z,96632.69
2022-11-21T09:18:11.515Z,96636.31
2022-11-21T09:20:44.748Z,96640.38
2022-11-21T09:23:15.183Z,96643.00
2022-11-21T09:25:43.634Z,96646.97
2022-11-21T09:28:12.988Z,96648.03
2022-11-21T09:30:42.103Z,96652.22
2022-11-21T09:33:15.014Z,96655.69
2022-11-21T09:35:42.923Z,96658.84
2022-11-21T09:38:10.361Z,96669.31
2022-11-21T09:40:44.870Z,96675.38
2022-11-21T09:43:38.444Z,96674.09
2022-11-21T09:46:17.806Z,96670.56
2022-11-21T09:48:51.241Z,96677.69
2022-11-21T09:51:20.845Z,96684.13
2022-11-21T09:54:22.285Z,96685.53
2022-11-21T09:56:52.744Z,96684.69
2022-11-21T09:59:41.054Z,96681.25
2022-11-21T10:02:18.071Z,96675.59
2022-11-21T10:04:49.384Z,96688.47
2022-11-21T10:07:19.936Z,96691.31
2022-11-21T10:10:24.435Z,96697.88
2022-11-21T10:12:54.995Z,96704.19
2022-11-21T10:15:38.216Z,96701.13
2022-11-21T10:18:43.324Z,96706.38
2022-11-21T10:21:16.415Z,96710.50
2022-11-21T10:24:06.388Z,96704.72
2022-11-21T10:26:55.820Z,96707.94
2022-11-21T10:29:32.435Z,96703.88
2022-11-21T10:32:08.411Z,96712.31
2022-11-21T10:34:38.405Z,96710.91
2022-11-21T10:37:35.081Z,96714.94
2022-11-21T10:40:45.740Z,96718.94
2022-11-21T10:43:58.482Z,96718.28
2022-11-21T10:46:26.095Z,96716.75
2022-11-21T10:49:00.156Z,96718.94
2022-11-21T10:52:08.853Z,96713.47
2022-11-21T10:55:05.114Z,96717.13
2022-11-21T10:57:39.851Z,96727.28
2022-11-21T11:00:13.279Z,96719.53
2022-11-21T11:02:43.200Z,96733.44
2022-11-21T11:05:16.481Z,96729.84
2022-11-21T11:08:03.625Z,96728.88
2022-11-21T11:10:33.724Z,96729.50
2022-11-21T11:16:16.705Z,96724.00
2022-11-21T11:18:55.243Z,96722.81
2022-11-21T11:21:25.077Z,96728.31
2022-11-21T11:23:55.083Z,96729.06
2022-11-21T11:26:32.964Z,96725.50
2022-11-21T11:29:20.783Z,96730.94
2022-11-21T11:32:19.409Z,96728.69
2022-11-21T11:34:51.500Z,96730.25
2022-11-21T11:37:51.318Z,96732.06
2022-11-21T11:40:21.741Z,96728.88
2022-11-21T11:43:12.473Z,96721.97
2022-11-21T11:46:19.800Z,96727.53
2022-11-21T11:49:17.126Z,96729.25
2022-11-21T11:51:42.863Z,96721.59
2022-11-21T11:54:18.536Z,96720.84
2022-11-21T11:56:47.459Z,96730.44
2022-11-21T11:59:23.454Z,96722.03
2022-11-21T12:02:11.693Z,96726.22
2022-11-21T12:05:03.383Z,96715.03
2022-11-21T12:08:39.528Z,96721.53
2022-11-21T12:11:33.154Z,96721.97
2022-11-21T12:14:11.634Z,96719.09
2022-11-21T12:16:41.464Z,96720.16
2022-11-21T12:19:15.464Z,96723.47
2022-11-21T12:21:42.960Z,96726.19
2022-11-21T12:24:12.405Z,96729.91
2022-11-21T12:26:52.173Z,96735.53
2022-11-21T12:30:04.955Z,96730.09
2022-11-21T12:32:35.354Z,96730.47
2022-11-21T12:35:14.870Z,96727.59
2022-11-21T12:38:08.313Z,96730.03
2022-11-21T12:40:47.357Z,96733.22
2022-11-21T12:43:48.396Z,96723.75
2022-11-21T12:46:31.853Z,96719.47
2022-11-21T12:49:21.102Z,96712.56
2022-11-21T12:52:30.980Z,96722.91
2022-11-21T12:55:01.583Z,96721.97
2022-11-21T12:58:01.290Z,96717.47
2022-11-21T13:00:39.501Z,96718.22
2022-11-21T13:03:34.864Z,96715.63
2022-11-21T13:06:04.920Z,96713.06
2022-11-21T13:08:36.865Z,96715.09
2022-11-21T13:11:28.704Z,96715.19
2022-11-21T13:14:09.224Z,96711.13
2022-11-21T13:16:39.849Z,96710.50
2022-11-21T13:19:47.192Z,96707.56
2022-11-21T13:22:36.357Z,96708.59
2022-11-21T13:25:23.384Z,96704.97
2022-11-21T13:27:51.304Z,96706.47
2022-11-21T13:30:21.922Z,96714.59
2022-11-21T13:32:55.992Z,96715.06
2022-11-21T13:35:23.380Z,96709.34
2022-11-21T13:38:02.372Z,96701.06
2022-11-21T13:40:32.371Z,96689.38
2022-11-21T13:43:35.744Z,96686.63
2022-11-21T13:46:03.974Z,96690.00
2022-11-21T13:48:31.544Z,96689.84
2022-11-21T13:51:25.963Z,96691.56
2022-11-21T13:54:12.170Z,96691.47
2022-11-21T13:57:11.194Z,96688.50
2022-11-21T14:00:20.486Z,96684.63
2022-11-21T14:03:11.206Z,96692.88
2022-11-21T14:05:55.626Z,96695.94
2022-11-21T14:08:26.922Z,96685.59
2022-11-21T14:10:58.107Z,96690.66
2022-11-21T14:13:28.624Z,96688.03
2022-11-21T14:16:11.356Z,96692.63
2022-11-21T14:18:42.395Z,96691.28
2022-11-21T14:21:29.546Z,96684.47
2022-11-21T14:24:04.381Z,96677.88
2022-11-21T14:26:39.581Z,96690.28
2022-11-21T14:29:26.827Z,96678.22
2022-11-21T14:31:55.816Z,96676.19
2022-11-21T14:34:29.031Z,96674.22
2022-11-21T14:37:00.539Z,96679.06
2022-11-21T14:39:43.305Z,96683.88
2022-11-21T14:42:15.476Z,96678.06
2022-11-21T14:44:43.664Z,96681.47
2022-11-21T14:47:25.131Z,96675.88
2022-11-21T14:49:54.844Z,96671.31
2022-11-21T14:52:26.684Z,96671.25
2022-11-21T14:55:28.522Z,96672.50
2022-11-21T14:57:45.404Z,96672.69
2022-11-21T15:03:19.401Z,96673.13
2022-11-21T15:06:01.871Z,96673.19
2022-11-21T15:11:25.967Z,96671.94
2022-11-21T15:14:15.441Z,96677.03
2022-11-21T15:16:49.748Z,96672.22
2022-11-21T15:19:21.793Z,96672.28
2022-11-21T15:21:51.532Z,96671.16
2022-11-21T15:24:36.469Z,96668.34
2022-11-21T15:27:28.998Z,96660.69
2022-11-21T15:30:22.212Z,96659.75
2022-11-21T15:33:04.091Z,96654.19
2022-11-21T15:35:40.753Z,96654.00
2022-11-21T15:38:31.395Z,96650.59
2022-11-21T15:41:22.442Z,96654.72
2022-11-21T15:43:55.649Z,96652.88
2022-11-21T15:46:25.792Z,96647.72
2022-11-21T15:48:58.302Z,96649.25
2022-11-21T15:52:10.467Z,96637.25
2022-11-21T15:54:28.216Z,96631.50
2022-11-21T15:56:55.794Z,96631.44
2022-11-21T15:59:23.272Z,96635.25
2022-11-21T16:01:50.702Z,96635.69
2022-11-21T16:04:23.894Z,96630.13
2022-11-21T16:06:56.212Z,96620.28
2022-11-21T16:09:23.729Z,96611.25
2022-11-21T16:11:51.147Z,96604.44
2022-11-21T16:14:18.742Z,96601.38
2022-11-21T16:16:47.862Z,96603.84
2022-11-21T16:19:16.129Z,96603.78
2022-11-21T16:21:43.812Z,96605.78
2022-11-21T16:24:11.566Z,96585.69
2022-11-21T16:26:38.953Z,96599.41
2022-11-21T16:29:06.481Z,96597.59
2022-11-21T16:31:34.304Z,96588.56
2022-11-21T16:34:01.907Z,96581.31
2022-11-21T16:36:30.689Z,96576.09
2022-11-21T16:39:01.923Z,96571.44
2022-11-21T16:41:33.011Z,96572.09
2022-11-21T16:44:00.482Z,96572.09
2022-11-21T16:46:27.938Z,96568.84
2022-11-21T16:49:02.869Z,96571.03
2022-11-21T16:51:30.731Z,96571.66
2022-11-21T16:54:03.062Z,96568.84
2022-11-21T16:56:34.772Z,96573.91
2022-11-21T16:59:02.229Z,96570.09
2022-11-21T17:01:29.763Z,96560.03
2022-11-21T17:03:57.452Z,96561.25
2022-11-21T17:06:28.484Z,96555.22
2022-11-21T17:08:55.937Z,96568.13
2022-11-21T17:11:31.386Z,96559.91
2022-11-21T17:14:02.481Z,96560.50
2022-11-21T17:16:31.032Z,96556.06
2022-11-21T17:19:01.940Z,96552.06
2022-11-21T17:21:29.831Z,96554.06
2022-11-21T17:23:57.902Z,96548.00
2022-11-21T17:26:27.576Z,96552.44
2022-11-21T17:28:57.801Z,96547.78
2022-11-21T17:31:25.850Z,96543.97
2022-11-21T17:33:54.828Z,96539.16
2022-11-21T17:36:24.194Z,96550.81
2022-11-21T17:38:52.692Z,96552.25
2022-11-21T17:41:22.542Z,96562.19
2022-11-21T17:43:53.842Z,96560.59
2022-11-21T17:46:21.825Z,96561.63
2022-11-21T17:48:54.879Z,96561.06
2022-11-21T17:51:25.796Z,96553.03
2022-11-21T17:53:53.609Z,96558.53
2022-11-21T17:56:23.748Z,96553.50
2022-11-21T17:58:52.363Z,96552.13
2022-11-21T18:01:20.548Z,96554.56
2022-11-21T18:03:53.592Z,96550.31
2022-11-21T18:06:21.268Z,96544.88
2022-11-21T18:08:49.461Z,96551.75
2022-11-21T18:11:21.201Z,96543.88
2022-11-21T18:13:49.816Z,96547.72
2022-11-21T18:16:20.643Z,96549.72
2022-11-21T18:18:49.807Z,96535.41
2022-11-21T18:21:19.593Z,96530.97
2022-11-21T18:23:47.275Z,96527.94
2022-11-21T18:26:18.063Z,96524.31
2022-11-21T18:28:45.457Z,96517.28
2022-11-21T18:31:15.403Z,96522.13
2022-11-21T18:33:43.402Z,96522.13
2022-11-21T18:36:12.137Z,96508.19
2022-11-21T18:38:53.734Z,96496.50
2022-11-21T18:41:30.762Z,96496.50
2022-11-21T18:44:00.332Z,96502.94
2022-11-21T18:46:30.264Z,96490.28
2022-11-21T18:49:05.209Z,96488.66
2022-11-21T18:51:34.238Z,96487.25
2022-11-21T18:54:05.914Z,96473.53
2022-11-21T18:56:33.791Z,96468.28
2022-11-21T18:59:02.003Z,96457.38
2022-11-21T19:01:30.360Z,96445.88
2022-11-21T19:03:57.972Z,96442.22
2022-11-21T19:06:26.959Z,96442.63
2022-11-21T19:08:55.797Z,96432.16
2022-11-21T19:11:26.012Z,96431.34
2022-11-21T19:13:55.453Z,96430.75
2022-11-21T19:16:25.711Z,96424.91
2022-11-21T19:19:33.771Z,96415.03
2022-11-21T19:21:45.703Z,96407.34
2022-11-21T19:24:14.878Z,96400.69
2022-11-21T19:26:42.596Z,96405.97
2022-11-21T19:29:10.601Z,96396.88
2022-11-21T19:31:44.553Z,96401.31
2022-11-21T19:34:14.599Z,96396.47
2022-11-21T19:41:07.628Z,96384.38
2022-11-21T19:43:35.048Z,96387.78
2022-11-21T19:46:06.198Z,96384.56
2022-11-21T19:48:34.117Z,96396.84
2022-11-21T19:51:02.974Z,96395.03
2022-11-21T19:53:35.393Z,96396.84
2022-11-21T19:56:20.390Z,96391.41
2022-11-21T19:58:48.903Z,96396.63
2022-11-21T20:01:21.603Z,96397.88
2022-11-21T20:03:53.400Z,96391.59
2022-11-21T20:06:23.601Z,96388.16
2022-11-21T20:08:56.428Z,96389.16
2022-11-21T20:11:25.319Z,96388.38
2022-11-21T20:13:53.118Z,96387.75
2022-11-21T20:16:26.047Z,96381.28
2022-11-21T20:18:57.754Z,96390.97
2022-11-21T20:21:26.064Z,96396.22
2022-11-21T20:23:54.018Z,96397.03
2022-11-21T20:26:23.188Z,96397.66
2022-11-21T20:28:51.136Z,96399.47
2022-11-21T20:31:21.879Z,96400.28
2022-11-21T20:33:51.593Z,96403.88
2022-11-21T20:36:22.207Z,96403.88
2022-11-21T20:39:01.298Z,96402.28
2022-11-21T20:41:31.543Z,96396.22
2022-11-21T20:46:49.981Z,96396.03
2022-11-21T20:49:17.679Z,96399.47
2022-11-21T20:54:32.921Z,96391.63
2022-11-21T20:57:00.478Z,96394.25
2022-11-21T20:59:28.388Z,96387.19
2022-11-21T21:01:56.152Z,96393.44
2022-11-21T21:04:23.627Z,96394.25
2022-11-21T21:06:51.109Z,96390.81
2022-11-21T21:09:18.504Z,96389.00
2022-11-21T21:11:53.645Z,96393.66
2022-11-21T21:14:22.567Z,96393.66
2022-11-21T21:16:50.606Z,96395.66
2022-11-21T21:19:18.772Z,96388.03
2022-11-21T21:21:46.367Z,96389.44
2022-11-21T21:24:14.848Z,96391.25
2022-11-21T21:26:44.841Z,96389.44
2022-11-21T21:29:18.229Z,96392.66
2022-11-21T21:31:50.997Z,96385.78
2022-11-21T21:34:21.088Z,96393.66
2022-11-21T21:36:49.636Z,96388.00
2022-11-21T21:39:17.119Z,96387.63
2022-11-21T21:41:46.751Z,96379.34
2022-11-21T21:44:15.489Z,96379.16
2022-11-21T21:46:43.164Z,96377.31
2022-11-21T21:49:10.997Z,96382.78
2022-11-21T21:51:38.750Z,96382.78
2022-11-21T21:54:06.718Z,96387.19
2022-11-21T21:56:35.407Z,96397.50
2022-11-21T21:59:02.818Z,96388.63
2022-11-21T22:01:32.551Z,96395.50
2022-11-21T22:04:04.882Z,96398.72
2022-11-21T22:06:35.807Z,96401.94
2022-11-21T22:09:03.504Z,96391.66
2022-11-21T22:11:33.141Z,96391.84
2022-11-21T22:14:06.387Z,96387.59
2022-11-21T22:16:34.178Z,96391.22
2022-11-21T22:19:01.642Z,96388.59
2022-11-21T22:21:34.704Z,96387.41
2022-11-21T22:26:52.690Z,96380.94
2022-11-21T22:29:20.110Z,96379.28
2022-11-21T22:31:47.593Z,96375.47
2022-11-21T22:34:15.084Z,96367.22
2022-11-21T22:36:43.086Z,96373.88
2022-11-21T22:39:10.686Z,96372.06
2022-11-21T22:41:38.298Z,96365.19
2022-11-21T22:44:05.698Z,96361.56
2022-11-21T22:46:33.248Z,96367.81
2022-11-21T22:49:00.675Z,96364.38
2022-11-21T22:51:29.786Z,96360.94
2022-11-21T22:53:57.861Z,96353.47
2022-11-21T22:56:26.117Z,96336.94
2022-11-21T22:58:53.785Z,96336.09
2022-11-21T23:01:24.252Z,96324.81
2022-11-21T23:03:52.760Z,96332.88
2022-11-21T23:06:24.004Z,96318.31
2022-11-21T23:08:53.666Z,96309.84
2022-11-21T23:11:24.674Z,96307.19
2022-11-21T23:13:52.638Z,96308.38
2022-11-21T23:16:21.309Z,96301.06
2022-11-21T23:18:51.479Z,96293.34
2022-11-21T23:21:19.058Z,96281.44
2022-11-21T23:23:46.539Z,96278.66
2022-11-21T23:26:14.217Z,96298.91
2022-11-21T23:28:41.838Z,96291.41
2022-11-21T23:31:10.871Z,96294.03
2022-11-21T23:33:38.566Z,96294.06
2022-11-21T23:36:06.319Z,96281.97
2022-11-21T23:38:33.828Z,96289.09
2022-11-21T23:41:01.308Z,96282.00
2022-11-21T23:43:29.084Z,96284.84
2022-11-21T23:45:56.608Z,96286.88
2022-11-21T23:48:27.449Z,96282.00
2022-11-21T23:50:55.028Z,96281.00
2022-11-21T23:53:23.103Z,96263.81
2022-11-21T23:55:50.764Z,96270.72
2022-11-21T23:58:18.277Z,96268.06
